createdAt,value
2023-04-10T04:44:31.942Z,100.00
2023-04-10T04:47:11.608Z,100.00
2023-04-10T04:50:15.742Z,100.00
2023-04-10T04:53:04.239Z,100.00
2023-04-10T04:55:43.559Z,100.00
2023-04-10T04:58:30.843Z,100.00
2023-04-10T05:01:31.213Z,100.00
2023-04-10T05:04:25.253Z,100.00
2023-04-10T05:07:16.244Z,100.00
2023-04-10T05:10:02.888Z,100.00
2023-04-10T05:12:41.998Z,100.00
2023-04-10T05:15:29.302Z,100.00
2023-04-10T05:18:23.899Z,100.00
2023-04-10T05:21:21.578Z,100.00
2023-04-10T05:24:13.692Z,100.00
2023-04-10T05:27:12.984Z,100.00
2023-04-10T05:30:08.993Z,100.00
2023-04-10T05:33:01.095Z,100.00
2023-04-10T05:35:50.391Z,100.00
2023-04-10T05:38:43.763Z,100.00
2023-04-10T05:41:39.763Z,100.00
2023-04-10T05:44:28.193Z,100.00
2023-04-10T05:47:02.092Z,100.00
2023-04-10T05:50:02.365Z,100.00
2023-04-10T05:52:55.101Z,100.00
2023-04-10T05:55:37.034Z,100.00
2023-04-10T05:58:19.223Z,100.00
2023-04-10T06:01:24.855Z,100.00
2023-04-10T06:04:00.391Z,100.00
2023-04-10T06:06:33.814Z,100.00
2023-04-10T06:09:03.252Z,100.00
2023-04-10T06:11:31.962Z,100.00
2023-04-10T06:14:01.075Z,100.00
2023-04-10T06:16:49.889Z,100.00
2023-04-10T06:19:21.728Z,100.00
2023-04-10T06:21:49.850Z,100.00
2023-04-10T06:24:24.348Z,100.00
2023-04-10T06:26:53.902Z,100.00
2023-04-10T06:29:22.109Z,100.00
2023-04-10T06:31:52.020Z,100.00
2023-04-10T06:34:21.081Z,100.00
2023-04-10T06:37:00.646Z,100.00
2023-04-10T06:39:31.166Z,100.00
2023-04-10T06:41:59.744Z,100.00
2023-04-10T06:44:45.515Z,100.00
2023-04-10T06:47:13.775Z,100.00
2023-04-10T06:49:50.145Z,100.00
2023-04-10T06:52:18.596Z,100.00
2023-04-10T06:54:46.826Z,100.00
2023-04-10T06:57:16.086Z,100.00
2023-04-10T06:59:45.719Z,100.00
2023-04-10T07:02:14.277Z,100.00
2023-04-10T07:04:49.075Z,100.00
2023-04-10T07:07:19.596Z,100.00
2023-04-10T07:09:56.069Z,100.00
2023-04-10T07:12:31.772Z,100.00
2023-04-10T07:15:03.646Z,100.00
2023-04-10T07:17:32.430Z,100.00
2023-04-10T07:20:00.894Z,100.00
2023-04-10T07:22:31.040Z,100.00
2023-04-10T07:24:59.544Z,100.00
2023-04-10T07:27:31.088Z,100.00
2023-04-10T07:29:59.201Z,100.00
2023-04-10T07:32:27.414Z,100.00
2023-04-10T07:34:56.089Z,100.00
2023-04-10T07:37:30.291Z,100.00
2023-04-10T07:40:00.862Z,100.00
2023-04-10T07:42:29.221Z,100.00
2023-04-10T07:44:59.992Z,100.00
2023-04-10T07:47:28.463Z,100.00
2023-04-10T07:49:56.695Z,100.00
2023-04-10T07:52:25.542Z,100.00
2023-04-10T07:54:54.123Z,100.00
2023-04-10T07:57:24.663Z,100.00
2023-04-10T07:59:56.028Z,100.00
2023-04-10T08:02:29.950Z,100.00
2023-04-10T08:05:01.290Z,100.00
2023-04-10T08:07:30.633Z,100.00
2023-04-10T08:09:59.501Z,100.00
2023-04-10T08:12:37.294Z,100.00
2023-04-10T08:15:11.124Z,100.00
2023-04-10T08:17:58.738Z,100.00
2023-04-10T08:20:36.887Z,100.00
2023-04-10T08:23:19.155Z,100.00
2023-04-10T08:25:50.435Z,100.00
2023-04-10T08:28:19.667Z,100.00
2023-04-10T08:30:48.368Z,100.00
2023-04-10T08:33:17.522Z,100.00
2023-04-10T08:35:51.447Z,100.00
2023-04-10T08:38:25.032Z,100.00
2023-04-10T08:40:53.288Z,100.00
2023-04-10T08:43:22.054Z,100.00
2023-04-10T08:45:56.109Z,100.00
2023-04-10T08:48:27.927Z,100.00
2023-04-10T08:50:56.358Z,100.00
2023-04-10T08:53:24.958Z,100.00
2023-04-10T08:55:53.343Z,100.00
2023-04-10T08:58:21.934Z,100.00
2023-04-10T09:00:50.338Z,100.00
2023-04-10T09:03:21.736Z,100.00
2023-04-10T09:05:51.002Z,100.00
2023-04-10T09:08:20.765Z,100.00
2023-04-10T09:10:53.915Z,100.00
2023-04-10T09:13:35.619Z,100.00
2023-04-10T09:16:06.500Z,98.94
2023-04-10T09:18:51.326Z,97.53
2023-04-10T09:21:22.524Z,95.92
2023-04-10T09:24:00.148Z,95.56
2023-04-10T09:26:29.169Z,96.05
2023-04-10T09:29:07.553Z,96.19
2023-04-10T09:31:37.669Z,96.04
2023-04-10T09:34:29.498Z,95.88
2023-04-10T09:37:04.922Z,94.14
2023-04-10T09:40:31.732Z,93.78
2023-04-10T09:44:28.154Z,92.35
2023-04-10T09:47:31.759Z,90.67
2023-04-10T09:50:07.596Z,90.28
2023-04-10T09:52:41.773Z,89.41
2023-04-10T09:55:11.303Z,88.22
2023-04-10T09:57:51.624Z,86.68
2023-04-10T10:00:20.243Z,83.68
2023-04-10T10:02:56.800Z,82.32
2023-04-10T10:05:33.100Z,82.45
2023-04-10T10:08:02.431Z,82.19
2023-04-10T10:10:32.434Z,82.54
2023-04-10T10:13:02.322Z,83.22
2023-04-10T10:15:52.198Z,84.29
2023-04-10T10:18:23.322Z,83.90
2023-04-10T10:20:51.567Z,83.50
2023-04-10T10:23:26.580Z,83.24
2023-04-10T10:25:54.993Z,82.00
2023-04-10T10:28:23.213Z,80.68
2023-04-10T10:30:51.613Z,77.80
2023-04-10T10:33:20.224Z,77.07
2023-04-10T10:35:50.176Z,76.20
2023-04-10T10:38:18.621Z,74.92
2023-04-10T10:41:16.849Z,73.76
2023-04-10T10:43:45.122Z,72.93
2023-04-10T10:46:19.591Z,72.36
2023-04-10T10:49:00.441Z,72.25
2023-04-10T10:51:50.388Z,72.00
2023-04-10T10:54:32.254Z,71.15
2023-04-10T10:57:09.300Z,67.96
2023-04-10T10:59:43.442Z,66.64
2023-04-10T11:02:18.387Z,65.66
2023-04-10T11:04:48.387Z,66.74
2023-04-10T11:07:16.652Z,66.71
2023-04-10T11:09:53.639Z,65.67
2023-04-10T11:12:25.511Z,65.92
2023-04-10T11:15:01.388Z,66.30
2023-04-10T11:17:54.138Z,66.33
2023-04-10T11:20:27.463Z,66.57
2023-04-10T11:23:12.139Z,65.83
2023-04-10T11:25:53.747Z,64.54
2023-04-10T11:28:38.780Z,63.91
2023-04-10T11:31:22.792Z,64.20
2023-04-10T11:34:01.320Z,63.62
2023-04-10T11:36:29.519Z,62.68
2023-04-10T11:38:57.703Z,62.79
2023-04-10T11:41:30.871Z,62.84
2023-04-10T11:44:03.155Z,63.96
2023-04-10T11:46:32.277Z,65.54
2023-04-10T11:49:01.892Z,65.62
2023-04-10T11:51:31.079Z,66.04
2023-04-10T11:54:21.706Z,66.00
2023-04-10T11:57:01.585Z,66.08
2023-04-10T11:59:31.037Z,66.93
2023-04-10T12:02:09.571Z,67.74
2023-04-10T12:04:38.413Z,68.24
2023-04-10T12:07:08.126Z,68.27
2023-04-10T12:09:36.515Z,68.53
2023-04-10T12:12:06.045Z,68.23
2023-04-10T12:14:36.483Z,68.06
2023-04-10T12:17:06.373Z,67.94
2023-04-10T12:19:53.422Z,68.03
2023-04-10T12:22:22.359Z,67.65
2023-04-10T12:24:54.204Z,67.34
2023-04-10T12:27:23.670Z,65.69
2023-04-10T12:29:54.253Z,65.20
2023-04-10T12:32:22.830Z,65.76
2023-04-10T12:34:57.415Z,65.63
2023-04-10T12:37:26.160Z,65.77
2023-04-10T12:40:07.560Z,66.00
2023-04-10T12:42:40.263Z,66.93
2023-04-10T12:45:10.199Z,67.43
2023-04-10T12:47:47.137Z,68.24
2023-04-10T12:50:19.123Z,68.96
2023-04-10T12:53:09.152Z,69.43
2023-04-10T12:55:38.119Z,69.45
2023-04-10T12:58:20.269Z,68.92
2023-04-10T13:00:48.994Z,67.58
2023-04-10T13:03:17.400Z,67.75
2023-04-10T13:05:46.188Z,69.94
2023-04-10T13:08:14.727Z,71.58
2023-04-10T13:10:43.678Z,72.12
2023-04-10T13:13:14.434Z,73.72
2023-04-10T13:15:43.293Z,74.96
2023-04-10T13:18:11.728Z,76.35
2023-04-10T13:20:40.798Z,76.98
2023-04-10T13:23:10.082Z,78.15
2023-04-10T13:25:40.077Z,79.01
